• Join FlightAware (Why Join?)
  • Login
  • US Flag 
11:43PM EDT


 

Airport Tracker/Info


-or-


 

Live Flight TrackerFlight Track Log ✈ N544PS ✈ 26-Apr-2013 ✈ KPDX - KLAX

Flight Track Log - Related Links

Times and Time Zones

All times are in EDT time to prevent confusion due to time zone crossing. See the N544PS flight status page for this flight to view local times or setup timezone preferences in your user account.

Time Position Orientation Groundspeed Altitude Reporting Facility
EDT Latitude Longitude Course Direction KTS MPH feet Rate Location/Type
03:01PM 45.5953 -122.6036 293° West 199 229 600  Level Seattle Center
03:02PM 45.6217 -122.6917 293° West 249 287 3,200 2,640 Climbing Seattle Center
03:03PM 45.6358 -122.7844 282° West 261 300 6,000 2,580 Climbing Seattle Center
03:04PM 45.5719 -122.8061 193° South 267 307 8,600 2,460 Climbing Seattle Center
03:05PM 45.5044 -122.7500 150° Southeast 278 320 11,100 2,220 Climbing Seattle Center
03:06PM 45.4350 -122.6925 150° Southeast 284 327 13,200 2,040 Climbing Seattle Center
03:07PM 45.3586 -122.6331 151° Southeast 305 351 15,300 2,040 Climbing Seattle Center
03:08PM 45.2847 -122.5742 151° Southeast 306 352 17,400 1,620 Climbing Seattle Center
03:09PM 45.2086 -122.5178 152° Southeast 308 354 18,700 1,500 Climbing Seattle Center
03:10PM 45.1297 -122.4556 151° Southeast 319 367 20,500 1,860 Climbing Seattle Center
03:11PM 45.0283 -122.4056 161° South 327 376 22,500 1,740 Climbing Seattle Center
03:12PM 44.9439 -122.3897 172° South 308 354 24,100 1,560 Climbing Seattle Center
03:13PM 44.8622 -122.3686 170° South 325 374 25,700 1,620 Climbing Seattle Center
03:14PM 44.7742 -122.3450 169° South 323 372 27,500 1,620 Climbing Seattle Center
03:16PM 44.6883 -122.3247 170° South 313 360 29,100 1,440 Climbing Seattle Center
03:17PM 44.5833 -122.2994 170° South 318 366 30,500 1,200 Climbing Seattle Center
03:18PM 44.4919 -122.2756 169° South 330 380 31,600 1,080 Climbing Seattle Center
03:19PM 44.3956 -122.2542 171° South 346 398 32,700 1,080 Climbing Seattle Center
03:20PM 44.3008 -122.2300 170° South 347 399 33,900 1,080 Climbing Seattle Center
03:21PM 44.2047 -122.2075 170° South 347 399 35,000 1,020 Climbing Seattle Center
03:22PM 44.1097 -122.1844 170° South 346 398 36,000 960 Climbing Seattle Center
03:23PM 44.0131 -122.1617 170° South 349 402 37,000 960 Climbing Seattle Center
03:24PM 43.9169 -122.1403 171° South 349 402 38,000 900 Climbing Seattle Center
03:25PM 43.8236 -122.1169 170° South 342 394 38,900 780 Climbing Seattle Center
03:26PM 43.7283 -122.0944 170° South 345 397 39,700 720 Climbing Seattle Center
03:27PM 43.6344 -122.0711 170° South 342 394 40,400 540 Climbing Seattle Center
03:28PM 43.5392 -122.0494 171° South 345 397 40,900 240 Climbing Seattle Center
03:29PM 43.4419 -122.0275 171° South 352 405 41,000  Climbing Seattle Center
03:30PM 43.3411 -122.0036 170° South 364 419 41,000  Level Seattle Center
03:31PM 43.2339 -121.9769 170° South 369 425 41,000  Level Seattle Center
03:32PM 43.1294 -121.9525 170° South 380 437 41,000  Level Seattle Center
03:33PM 43.0244 -121.9289 171° South 383 441 41,000  Level Seattle Center
03:34PM 42.9181 -121.9075 172° South 387 445 41,000  Level Seattle Center
03:35PM 42.7928 -121.8769 170° South 381 438 41,000  Level Seattle Center
03:36PM 42.6869 -121.8522 170° South 383 441 41,000  Level Seattle Center
03:37PM 42.5822 -121.8275 170° South 382 440 41,000  Level Seattle Center
03:38PM 42.4797 -121.8031 170° South 376 433 41,000  Level Seattle Center
03:39PM 42.3767 -121.7783 170° South 373 429 41,000  Level Seattle Center
03:40PM 42.2733 -121.7550 171° South 373 429 41,000  Level Seattle Center
03:41PM 42.1703 -121.7308 170° South 372 428 41,000  Level Seattle Center
03:42PM 42.0661 -121.7128 173° South 371 427 41,000  Level Seattle Center
03:43PM 41.9628 -121.6933 172° South 369 425 41,000  Level Seattle Center
03:44PM 41.8592 -121.6725 171° South 372 428 41,000  Level Seattle Center
03:45PM 41.7567 -121.6536 172° South 370 426 41,000  Level Seattle Center
03:46PM 41.6533 -121.6347 172° South 373 429 41,000  Level Seattle Center
03:47PM 41.5497 -121.6147 172° South 376 433 41,000  Level Seattle Center
03:48PM 41.4447 -121.5961 172° South 378 435 41,000  Level Seattle Center
03:49PM 41.3411 -121.5775 172° South 377 434 41,000  Level Seattle Center
03:50PM 41.2369 -121.5578 172° South 377 434 41,000  Level Seattle Center
03:51PM 41.1317 -121.5394 173° South 377 434 41,000  Level Oakland Center
03:52PM 41.0061 -121.5128 171° South 374 430 41,000  Level Oakland Center
03:53PM 40.9031 -121.4961 173° South 373 429 41,000  Level Oakland Center
03:54PM 40.7994 -121.4756 171° South 379 436 41,000  Level Oakland Center
03:55PM 40.6942 -121.4575 173° South 381 438 41,000  Level Oakland Center
03:56PM 40.5908 -121.4378 172° South 377 434 41,000  Level Oakland Center
03:57PM 40.4831 -121.4175 172° South 379 436 41,000  Level Oakland Center
03:58PM 40.3789 -121.4006 173° South 377 434 41,000  Level Oakland Center
03:59PM 40.2747 -121.3825 172° South 377 434 41,000  Level Oakland Center
04:00PM 40.1472 -121.3583 172° South 383 441 41,000  Level Oakland Center
04:01PM 40.0428 -121.3408 173° South 379 436 41,000  Level Oakland Center
04:02PM 39.9389 -121.3217 172° South 376 433 41,000  Level Oakland Center
04:03PM 39.8331 -121.3028 172° South 381 438 41,000  Level Oakland Center
04:05PM 39.7267 -121.2842 172° South 384 442 41,000  Level Oakland Center
04:06PM 39.6217 -121.2656 172° South 382 440 41,000  Level Oakland Center
04:07PM 39.5150 -121.2469 172° South 385 443 41,000  Level Oakland Center
04:08PM 39.4061 -121.2281 172° South 384 442 41,000  Level Oakland Center
04:09PM 39.3008 -121.2111 173° South 382 440 41,000  Level Oakland Center
04:10PM 39.1961 -121.1922 172° South 379 436 41,000  Level Oakland Center
04:11PM 39.0922 -121.1753 173° South 375 432 41,000  Level Oakland Center
04:12PM 38.9672 -121.1539 172° South 377 434 41,000  Level Oakland Center
04:13PM 38.8642 -121.1361 172° South 374 430 41,000  Level Oakland Center
04:14PM 38.7603 -121.1183 172° South 376 433 41,000  Level Oakland Center
04:15PM 38.6564 -121.0997 172° South 375 432 41,000  Level Oakland Center
04:16PM 38.5500 -121.0814 172° South 376 433 41,000  Level Oakland Center
04:17PM 38.4442 -121.0642 173° South 375 432 41,000  Level Oakland Center
04:18PM 38.3417 -121.0478 173° South 370 426 41,000  Level Oakland Center
04:19PM 38.2381 -121.0294 172° South 372 428 41,000  Level Oakland Center
04:20PM 38.1347 -121.0119 172° South 373 429 41,000  Level Oakland Center
04:21PM 38.0328 -120.9875 169° South 373 429 41,000  Level Oakland Center
04:22PM 37.9333 -120.9411 160° South 378 435 41,000  Level Oakland Center
04:23PM 37.8347 -120.8986 161° South 374 430 41,000  Level Oakland Center
04:24PM 37.7158 -120.8453 160° South 376 433 41,000  Level Oakland Center
04:25PM 37.6172 -120.8019 161° South 375 432 41,000  Level Oakland Center
04:26PM 37.5178 -120.7600 162° South 375 432 41,000  Level Oakland Center
04:27PM 37.4189 -120.7167 161° South 375 432 41,000  Level Oakland Center
04:28PM 37.3172 -120.6767 163° South 389 448 41,000  Level Oakland Center
04:29PM 37.2178 -120.6353 162° South 374 430 41,000  Level Oakland Center
04:30PM 37.1186 -120.5928 161° South 365 420 41,000  Level Oakland Center
04:31PM 37.0189 -120.5506 161° South 374 430 41,000  Level Oakland Center
04:32PM 36.9203 -120.5097 162° South 373 429 41,000 -540 Level Oakland Center
04:33PM 36.8017 -120.4594 161° South 371 427 40,000 -900 Descending Oakland Center
04:34PM 36.7106 -120.4178 160° South 346 398 39,200 -840 Descending Oakland Center
04:35PM 36.6186 -120.4064 174° South 329 379 38,300 -960 Descending Oakland Center
04:36PM 36.5503 -120.4783 220° Southwest 327 376 37,300 -1,320 Descending Oakland Center
04:37PM 36.4878 -120.5631 227° Southwest 330 380 35,700 -1,140 Descending Oakland Center
04:38PM 36.4236 -120.6603 231° Southwest 360 414 35,000 -360 Descending Oakland Center
04:39PM 36.3486 -120.7175 212° Southwest 333 383 35,000  Level Oakland Center
04:40PM 36.2642 -120.6919 166° South 320 368 35,000  Level Oakland Center
04:41PM 36.2228 -120.5731 113° Southeast 310 357 35,000  Level Oakland Center
04:42PM 36.1978 -120.4703 107° East 311 358 35,000  Level Oakland Center
04:43PM 36.1250 -120.3931 139° Southeast 350 403 35,000  Level Oakland Center
04:45PM 36.0389 -120.3217 146° Southeast 363 418 35,000  Level Oakland Center
04:46PM 35.9525 -120.2478 145° Southeast 374 430 35,000  Level Oakland Center
04:47PM 35.8622 -120.1681 144° Southeast 393 452 35,000  Level Oakland Center
04:48PM 35.7717 -120.0878 144° Southeast 397 457 35,000  Level Oakland Center
04:49PM 35.6794 -120.0064 144° Southeast 402 463 35,000  Level Oakland Center
04:50PM 35.5864 -119.9267 145° Southeast 404 465 35,000 -240 Level Oakland Center
04:51PM 35.4928 -119.8461 145° Southeast 406 467 34,600 -840 Descending Oakland Center
04:52PM 35.3800 -119.7475 145° Southeast 411 473 33,300 -1,140 Descending Oakland Center
04:52PM 35.3444 -119.7158 144° Southeast 408 470 32,800 -1,260 Descending Los Angeles Center
04:53PM 35.2364 -119.6247 145° Southeast 394 453 31,300 -1,560 Descending Los Angeles Center
04:54PM 35.1483 -119.5494 145° Southeast 387 445 29,600 -1,740 Descending Los Angeles Center
04:55PM 35.0547 -119.4697 145° Southeast 402 463 27,800 -1,800 Descending Los Angeles Center
04:56PM 34.9617 -119.3894 145° Southeast 409 471 26,000 -1,800 Descending Los Angeles Center
04:57PM 34.8667 -119.3089 145° Southeast 413 475 24,200 -1,800 Descending Los Angeles Center
04:58PM 34.7739 -119.2314 146° Southeast 407 468 22,400 -1,920 Descending Los Angeles Center
04:59PM 34.6681 -119.1422 145° Southeast 390 449 20,300 -1,800 Descending Los Angeles Center
05:01PM 34.5953 -119.0828 146° Southeast 376 433 18,700 -1,680 Descending Los Angeles Center
05:02PM 34.4975 -118.9997 145° Southeast 357 411 16,800 -1,860 Descending Los Angeles Center
05:03PM 34.4186 -118.9328 145° Southeast 346 398 14,900 -1,800 Descending Los Angeles Center
05:04PM 34.3375 -118.8725 148° Southeast 342 394 13,100 -1,140 Descending Los Angeles Center
05:05PM 34.2528 -118.8447 165° South 313 360 12,600 -840 Descending Los Angeles Center
05:06PM 34.1689 -118.8128 163° South 314 361 11,400 -1,260 Descending Los Angeles Center
05:07PM 34.0831 -118.7719 158° South 295 339 10,000 -720 Descending Los Angeles Center
05:08PM 34.0542 -118.6722 109° East 298 343 10,000 -480 Level Los Angeles Center
05:09PM 34.0353 -118.5775 104° East 287 330 9,100 -1,080 Descending Los Angeles Center
05:10PM 34.0161 -118.4883 105° East 256 295 7,800 -1,200 Descending Los Angeles Center
05:11PM 34.0078 -118.4225 99° East 233 268 6,700 -1,260 Descending Los Angeles Center
05:12PM 34.0208 -118.3450 78° East 234 269 5,300 -1,320 Descending Los Angeles Center
05:13PM 34.0303 -118.2683 82° East 232 267 4,000 -840 Descending Los Angeles Center
05:14PM 33.9803 -118.2306 148° Southeast 228 262 3,600 -720 Descending Los Angeles Center
05:15PM 33.9642 -118.2931 253° West 208 239 2,500 -1,140 Descending Los Angeles Center
05:16PM 33.9581 -118.3469 262° West 183 211 1,300 -1,020 Descending Los Angeles Center
05:17PM 33.9539 -118.3922 264° West 158 182 400 -540 Descending Los Angeles Center
05:18PM 33.9486 -118.4339 261° West 152 175 200 -240 Descending Los Angeles Center
05:20PM 33.9425 -118.4081 90° East  Level Estimated